Aérodrome :
LOGIN :

S'inscrire | Disclaimer

   EN    FR    IT 

 










Légende :    VFR   VFR Marginal   IFR   IFR Intensif   IFR Très Intensif
Visi : 
Plafond : 
>= 8 km
>= 3000ft
5 à 8 km
1000 à 3000 ft
1500m à 5 km
500 à 1000 ft
800 à 1500m
200 à 500 ft
< 800m
< 200 ft
Symboles :   Orages  Brouillard  Fortes neiges  Fortes précipitations  Vent > 20 kt
SIGMETs :   Divers  Orages  Givrage  Turbulence  Onde Orograph.  Cendres Volcan.







- Altitude de l'aérodrome : 302 ft
- Code IATA : MAH


LEMH - Menorca

DERNIER METAR :
  • 230600Z 01010KT CAVOK 11/10 Q1025

METARs EXPIRÉS :
  • 230530Z 01010KT 9000 NSC 11/10 Q1024
  • 230500Z 02009KT CAVOK 11/10 Q1024
  • 230430Z AUTO 01009KT CAVOK 12/11 Q1024
  • 230400Z AUTO 02009KT CAVOK 12/11 Q1024
  • 230330Z AUTO 02008KT CAVOK 12/11 Q1024

TAF TAF LEMH
Valide du 23 à 03h jusqu'au 24 à 03h UTC


230200Z 2303/2403 02008KT 9999 FEW030 TX18/2312Z TN09/2306Z
PROB30
TEMPO 2303/2307 4000 BR BKN008
BECMG 2316/2318 VRB03KT
Pas de NOTAMs connus pour ce terrain.



MET'MAP, la Météo Aéronautique d'un coup d'oeil ! - Copyright ORBIFLY Décembre 2007 - Disclaimer

ORBIFLY MET'MAP TEAM :

Programmation & Développement : Alexandra Zaïnal
Conception & Développement : Baudouin d'Aumeries
Co-Programmation & Développement : Marc-Olivier Méhu
Soutien technique & logistique : Manuel Goepfert

Contact : metmap@orbifly.com




SOURCES & CREDITS :

   NOAA